Time;durP1;ratioP1;P1;durP2;ratioP2;P2;SDS_P1;SDS_P2;PMS_P1;PMS_P2;Temp;Humidity;BMP_temperature;BMP_pressure;BME280_temperature;BME280_humidity;BME280_pressure;Samples;Min_cycle;Max_cycle;Signal;HPM_P1;HPM_P2
2023/05/19 00:01:30;;;;;;;4.70;2.53;;;10.90;1.00;;;;;;5025579;28;21015;-71
2023/05/19 00:04:01;;;;;;;6.03;3.50;;;10.90;1.00;;;;;;5026105;28;20850;-71
2023/05/19 00:06:30;;;;;;;3.50;2.50;;;10.80;1.00;;;;;;5024944;28;20528;-71
2023/05/19 00:08:59;;;;;;;5.03;2.93;;;10.80;1.00;;;;;;5024919;28;20464;-71
2023/05/19 00:11:28;;;;;;;4.20;2.60;;;10.80;1.00;;;;;;5022333;28;20471;-70
2023/05/19 00:13:57;;;;;;;6.60;2.63;;;10.80;1.00;;;;;;5024212;28;20544;-73
2023/05/19 00:16:27;;;;;;;2.50;2.20;;;10.80;1.00;;;;;;5026568;28;20500;-73
2023/05/19 00:18:55;;;;;;;5.10;3.00;;;10.80;1.00;;;;;;5027557;28;21291;-75
2023/05/19 00:21:22;;;;;;;5.80;2.83;;;10.80;1.00;;;;;;5023279;28;20520;-72
2023/05/19 00:23:49;;;;;;;7.20;2.60;;;10.80;1.00;;;;;;5029544;28;20453;-71
2023/05/19 00:26:16;;;;;;;2.83;2.13;;;10.80;1.00;;;;;;5026324;28;20559;-73
2023/05/19 00:28:43;;;;;;;4.00;2.50;;;10.70;1.00;;;;;;5026729;28;20458;-72
2023/05/19 00:31:11;;;;;;;3.80;2.50;;;10.70;1.00;;;;;;5025620;28;20540;-70
2023/05/19 00:33:38;;;;;;;7.33;2.93;;;10.70;1.00;;;;;;5022815;28;20451;-72
2023/05/19 00:36:07;;;;;;;3.93;2.50;;;10.70;1.00;;;;;;5028912;28;20481;-72
2023/05/19 00:38:35;;;;;;;5.40;2.47;;;10.60;1.00;;;;;;5025830;28;20540;-74
2023/05/19 00:41:03;;;;;;;5.97;2.40;;;10.60;1.00;;;;;;5025001;28;20520;-70
2023/05/19 00:43:30;;;;;;;3.70;2.30;;;10.60;1.00;;;;;;5023269;28;20451;-72
2023/05/19 00:45:58;;;;;;;4.00;2.03;;;10.50;1.00;;;;;;5029054;28;20497;-73
2023/05/19 00:48:25;;;;;;;4.70;2.00;;;10.50;1.00;;;;;;5025309;28;20461;-71
2023/05/19 00:50:54;;;;;;;7.03;2.40;;;10.50;1.00;;;;;;5027209;28;20959;-73
2023/05/19 00:53:25;;;;;;;4.60;2.60;;;10.50;1.00;;;;;;5029115;28;20458;-70
2023/05/19 00:55:52;;;;;;;3.90;2.53;;;10.50;1.00;;;;;;5025447;28;20469;-70
2023/05/19 00:58:22;;;;;;;4.50;3.27;;;10.50;1.00;;;;;;5023060;28;20849;-72
2023/05/19 01:00:50;;;;;;;5.40;2.53;;;10.40;1.00;;;;;;5024439;28;20544;-71
2023/05/19 01:03:19;;;;;;;5.20;2.73;;;10.40;1.00;;;;;;5021655;28;20876;-71
2023/05/19 01:05:46;;;;;;;3.60;2.33;;;10.40;1.00;;;;;;5018078;28;20501;-71
2023/05/19 01:08:13;;;;;;;4.83;2.53;;;10.40;1.00;;;;;;5027279;28;20474;-72
2023/05/19 01:10:42;;;;;;;3.37;2.37;;;10.40;1.00;;;;;;5024104;28;20554;-72
2023/05/19 01:13:09;;;;;;;3.80;2.37;;;10.40;1.00;;;;;;5022848;28;20524;-72
2023/05/19 01:15:43;;;;;;;3.60;2.17;;;10.40;1.00;;;;;;5025567;28;20548;-70
2023/05/19 01:18:17;;;;;;;4.87;2.57;;;10.30;1.00;;;;;;5023374;28;20995;-71
2023/05/19 01:20:51;;;;;;;4.67;2.27;;;10.30;1.00;;;;;;5026934;28;20489;-72
2023/05/19 01:23:35;;;;;;;3.13;2.00;;;10.30;1.00;;;;;;5023801;28;20466;-74
2023/05/19 01:26:22;;;;;;;6.60;2.57;;;10.30;1.00;;;;;;5028958;28;20559;-70
2023/05/19 01:29:22;;;;;;;3.93;3.00;;;10.30;1.00;;;;;;5021661;28;20457;-71
2023/05/19 01:31:52;;;;;;;2.83;2.30;;;10.30;1.00;;;;;;5023149;28;20547;-73
2023/05/19 01:34:23;;;;;;;2.60;1.80;;;10.30;1.00;;;;;;5023450;28;20954;-72
2023/05/19 01:36:52;;;;;;;4.07;2.50;;;10.30;1.00;;;;;;5024390;28;20478;-71
2023/05/19 01:39:20;;;;;;;5.43;2.53;;;10.30;1.00;;;;;;5028552;28;20881;-70
2023/05/19 01:41:48;;;;;;;6.33;2.83;;;10.20;1.00;;;;;;5025340;28;21032;-70
2023/05/19 01:44:16;;;;;;;4.10;2.40;;;10.20;1.00;;;;;;5027643;28;20563;-71
2023/05/19 01:46:43;;;;;;;2.40;2.10;;;10.20;1.00;;;;;;5023021;28;21043;-72
2023/05/19 01:49:12;;;;;;;7.00;2.17;;;10.20;1.00;;;;;;5020606;28;20968;-71
2023/05/19 01:51:40;;;;;;;2.93;2.30;;;10.10;1.00;;;;;;5023901;28;21285;-71
2023/05/19 01:54:07;;;;;;;3.20;2.80;;;10.10;1.00;;;;;;5023661;28;20541;-72
2023/05/19 01:56:50;;;;;;;10.73;2.60;;;10.00;1.00;;;;;;5020031;28;20493;-72
2023/05/19 01:59:41;;;;;;;3.40;2.40;;;10.00;1.00;;;;;;5020219;28;20510;-73
2023/05/19 02:02:17;;;;;;;7.53;2.37;;;10.00;1.00;;;;;;5024770;28;20556;-71
2023/05/19 02:04:54;;;;;;;5.37;2.40;;;10.00;1.00;;;;;;5024954;28;20465;-72
2023/05/19 02:07:26;;;;;;;5.40;2.43;;;10.00;1.00;;;;;;5022541;28;20485;-71
2023/05/19 02:10:01;;;;;;;7.60;2.70;;;10.00;1.00;;;;;;5023977;28;20548;-71
2023/05/19 02:12:32;;;;;;;4.17;2.10;;;10.00;1.00;;;;;;5021778;28;20448;-71
2023/05/19 02:15:04;;;;;;;3.83;2.10;;;9.90;1.00;;;;;;5023794;28;20528;-71
2023/05/19 02:17:34;;;;;;;2.60;2.30;;;9.90;1.00;;;;;;5025164;28;20488;-71
2023/05/19 02:20:04;;;;;;;5.63;3.03;;;9.90;1.00;;;;;;5024708;28;20462;-71
2023/05/19 02:22:31;;;;;;;4.97;2.37;;;9.90;1.00;;;;;;5023431;28;20452;-71
2023/05/19 02:24:58;;;;;;;12.67;3.57;;;9.90;1.00;;;;;;5018031;28;20458;-73
2023/05/19 02:27:25;;;;;;;3.27;2.20;;;9.90;1.00;;;;;;5024212;28;20469;-71
2023/05/19 02:29:52;;;;;;;4.00;2.23;;;9.90;1.00;;;;;;5026056;28;20454;-71
2023/05/19 02:32:20;;;;;;;5.53;2.50;;;9.90;1.00;;;;;;5031090;28;20457;-71
2023/05/19 02:34:47;;;;;;;4.67;2.50;;;9.90;1.00;;;;;;5023316;28;20461;-71
2023/05/19 02:37:16;;;;;;;6.23;3.60;;;9.80;1.00;;;;;;5023598;28;21298;-70
2023/05/19 02:39:44;;;;;;;5.67;2.80;;;9.90;1.00;;;;;;5026782;28;20446;-70
2023/05/19 02:42:13;;;;;;;6.00;2.37;;;9.90;1.00;;;;;;5023777;28;20470;-74
2023/05/19 02:44:40;;;;;;;3.83;2.43;;;9.90;1.00;;;;;;5026795;28;20468;-72
2023/05/19 02:47:07;;;;;;;4.80;2.83;;;10.00;1.00;;;;;;5023092;28;20509;-71
2023/05/19 02:49:34;;;;;;;3.63;2.53;;;9.90;1.00;;;;;;5028355;28;20477;-71
2023/05/19 02:52:02;;;;;;;4.80;3.40;;;9.90;1.00;;;;;;5029754;28;20472;-71
2023/05/19 02:54:31;;;;;;;7.07;3.60;;;9.90;1.00;;;;;;5026648;28;20453;-72
2023/05/19 02:56:58;;;;;;;6.83;2.90;;;10.00;1.00;;;;;;5026567;28;20504;-72
2023/05/19 02:59:25;;;;;;;3.30;2.60;;;10.00;1.00;;;;;;5027363;28;20536;-71
2023/05/19 03:01:56;;;;;;;7.87;3.77;;;10.20;1.00;;;;;;5021326;28;20500;-71
2023/05/19 03:04:22;;;;;;;5.90;3.20;;;10.20;1.00;;;;;;5023067;28;20548;-71
2023/05/19 03:06:49;;;;;;;3.63;2.40;;;10.30;1.00;;;;;;5031315;28;20470;-74
2023/05/19 03:09:16;;;;;;;7.47;4.57;;;10.30;1.00;;;;;;5022339;28;20560;-71
2023/05/19 03:11:45;;;;;;;4.20;3.30;;;10.30;1.00;;;;;;5026711;28;20654;-71
2023/05/19 03:14:12;;;;;;;5.07;3.10;;;10.30;1.00;;;;;;5023085;28;20473;-71
2023/05/19 03:16:39;;;;;;;5.67;2.50;;;10.20;1.00;;;;;;5029002;28;20973;-72
2023/05/19 03:19:06;;;;;;;6.60;2.63;;;10.20;1.00;;;;;;5025989;28;20496;-76
2023/05/19 03:21:34;;;;;;;4.97;2.27;;;10.10;1.00;;;;;;5026611;28;20461;-71
2023/05/19 03:24:01;;;;;;;7.07;2.83;;;10.10;1.00;;;;;;5026878;28;20467;-70
2023/05/19 03:26:28;;;;;;;5.80;2.90;;;10.10;1.00;;;;;;5027564;28;20520;-71
2023/05/19 03:28:56;;;;;;;5.87;3.07;;;10.00;1.00;;;;;;5026734;28;20478;-71
2023/05/19 03:31:25;;;;;;;3.57;2.00;;;9.90;1.00;;;;;;5028886;28;20477;-77
2023/05/19 03:33:52;;;;;;;4.07;2.60;;;10.00;1.00;;;;;;5029585;28;20468;-72
2023/05/19 03:36:20;;;;;;;5.77;2.20;;;10.00;1.00;;;;;;5029276;28;20488;-72
2023/05/19 03:38:47;;;;;;;5.43;2.80;;;10.00;1.00;;;;;;5023455;28;20889;-71
2023/05/19 03:41:14;;;;;;;3.30;2.30;;;10.10;1.00;;;;;;5023660;28;20470;-71
2023/05/19 03:43:41;;;;;;;4.07;2.70;;;10.10;1.00;;;;;;5028644;28;20450;-71
2023/05/19 03:46:10;;;;;;;5.57;2.47;;;10.20;1.00;;;;;;5026274;28;20560;-73
2023/05/19 03:48:37;;;;;;;5.40;2.80;;;10.20;1.00;;;;;;5024568;28;20554;-69
2023/05/19 03:51:04;;;;;;;2.80;2.43;;;10.30;1.00;;;;;;5022972;28;20453;-73
2023/05/19 03:53:31;;;;;;;3.30;2.80;;;10.30;1.00;;;;;;5028977;28;20466;-71
2023/05/19 03:55:58;;;;;;;5.50;3.00;;;10.40;1.00;;;;;;5025371;28;20497;-72
2023/05/19 03:58:25;;;;;;;6.87;2.60;;;10.40;1.00;;;;;;5025051;28;20473;-70
2023/05/19 04:00:52;;;;;;;4.97;2.73;;;10.50;1.00;;;;;;5024138;28;20489;-71
2023/05/19 04:03:21;;;;;;;5.33;2.27;;;10.50;1.00;;;;;;5025154;28;20469;-71
2023/05/19 04:05:48;;;;;;;5.20;3.10;;;10.60;1.00;;;;;;5024679;28;21345;-71
2023/05/19 04:08:15;;;;;;;4.37;3.27;;;10.60;1.00;;;;;;5029171;28;20541;-70
2023/05/19 04:10:41;;;;;;;3.77;2.47;;;10.70;1.00;;;;;;5026661;28;20464;-70
2023/05/19 04:13:09;;;;;;;4.70;2.87;;;10.70;1.00;;;;;;5027334;28;20499;-71
2023/05/19 04:15:36;;;;;;;3.50;2.27;;;10.70;1.00;;;;;;5021578;28;20544;-73
2023/05/19 04:18:03;;;;;;;6.50;3.60;;;10.80;1.00;;;;;;5024757;28;20548;-71
2023/05/19 04:20:31;;;;;;;5.50;2.60;;;10.80;1.00;;;;;;5025797;28;20454;-71
2023/05/19 04:22:58;;;;;;;3.17;2.73;;;10.80;1.00;;;;;;5024805;28;20464;-71
2023/05/19 04:25:27;;;;;;;6.83;3.30;;;10.80;1.00;;;;;;5025994;28;21007;-72
2023/05/19 04:27:56;;;;;;;3.60;2.70;;;10.80;1.00;;;;;;5026572;28;20462;-71
2023/05/19 04:30:27;;;;;;;3.20;2.83;;;10.90;1.00;;;;;;5026165;28;20926;-72
2023/05/19 04:32:56;;;;;;;3.10;2.53;;;10.90;1.00;;;;;;5027306;28;20450;-71
2023/05/19 04:35:24;;;;;;;3.33;2.60;;;10.80;1.00;;;;;;5025680;28;20462;-71
2023/05/19 04:37:53;;;;;;;7.00;4.00;;;10.80;1.00;;;;;;5028216;28;20458;-71
2023/05/19 04:40:22;;;;;;;6.73;3.87;;;10.70;1.00;;;;;;5027455;28;20458;-70
2023/05/19 04:42:51;;;;;;;5.20;3.07;;;10.80;1.00;;;;;;5025127;28;21518;-71
2023/05/19 04:45:18;;;;;;;5.10;2.97;;;10.90;1.00;;;;;;5027902;28;20457;-71
2023/05/19 04:47:46;;;;;;;4.43;2.70;;;10.90;1.00;;;;;;5024449;28;20465;-72
2023/05/19 04:50:15;;;;;;;3.80;2.80;;;10.90;1.00;;;;;;5029405;28;20450;-70
2023/05/19 04:52:44;;;;;;;5.00;3.40;;;11.00;1.00;;;;;;5027649;28;20466;-72
2023/05/19 04:55:12;;;;;;;3.93;2.50;;;11.00;1.00;;;;;;5029330;28;20964;-71
2023/05/19 04:57:39;;;;;;;5.90;3.43;;;11.00;1.00;;;;;;5030120;28;20553;-71
2023/05/19 05:00:11;;;;;;;6.80;3.13;;;11.00;1.00;;;;;;5023204;28;20454;-71
2023/05/19 05:02:38;;;;;;;9.33;3.93;;;11.00;1.00;;;;;;5029825;28;20882;-70
2023/05/19 05:05:05;;;;;;;5.63;3.43;;;11.10;1.00;;;;;;5028411;28;21046;-71
2023/05/19 05:07:32;;;;;;;3.33;2.70;;;11.20;1.00;;;;;;5029994;28;20441;-71
2023/05/19 05:09:59;;;;;;;10.10;4.10;;;11.30;1.00;;;;;;5019871;28;20477;-71
2023/05/19 05:12:28;;;;;;;4.80;3.40;;;11.30;1.00;;;;;;5024535;28;20491;-77
2023/05/19 05:14:55;;;;;;;3.60;3.03;;;11.40;1.00;;;;;;5029203;28;20569;-76
2023/05/19 05:17:24;;;;;;;4.03;3.50;;;11.50;1.00;;;;;;5025316;28;20449;-71
2023/05/19 05:19:51;;;;;;;7.43;3.00;;;11.50;1.00;;;;;;5022082;28;20478;-71
2023/05/19 05:22:19;;;;;;;4.67;3.20;;;11.60;1.00;;;;;;5027253;28;20893;-73
2023/05/19 05:24:47;;;;;;;5.47;3.00;;;11.60;1.00;;;;;;5027009;28;20497;-72
2023/05/19 05:27:14;;;;;;;4.47;3.60;;;11.70;1.00;;;;;;5026206;28;20606;-69
2023/05/19 05:29:42;;;;;;;5.33;2.60;;;11.60;1.00;;;;;;5029626;28;20477;-71
2023/05/19 05:32:09;;;;;;;6.83;2.90;;;11.60;1.00;;;;;;5026983;28;20466;-72
2023/05/19 05:34:36;;;;;;;4.53;2.70;;;11.70;1.00;;;;;;5025493;28;20562;-72
2023/05/19 05:37:03;;;;;;;14.83;13.30;;;11.60;1.00;;;;;;5024665;28;20527;-74
2023/05/19 05:39:32;;;;;;;3.87;2.93;;;11.70;1.00;;;;;;5024179;28;20553;-72
2023/05/19 05:41:58;;;;;;;6.57;3.37;;;11.80;1.00;;;;;;5030519;28;20527;-72
2023/05/19 05:44:26;;;;;;;5.37;3.73;;;11.90;1.00;;;;;;5026574;28;20473;-72
2023/05/19 05:46:54;;;;;;;6.00;3.10;;;12.00;1.00;;;;;;5021950;28;20505;-72
2023/05/19 05:49:22;;;;;;;4.23;3.20;;;12.10;1.00;;;;;;5030179;28;20464;-71
2023/05/19 05:51:51;;;;;;;4.90;2.60;;;12.30;1.00;;;;;;5025349;28;20568;-73
2023/05/19 05:54:20;;;;;;;3.37;2.47;;;12.50;1.00;;;;;;5025789;28;20843;-71
2023/05/19 05:56:48;;;;;;;5.43;2.80;;;12.60;1.00;;;;;;5023895;28;20997;-71
2023/05/19 05:59:15;;;;;;;4.30;2.60;;;12.50;1.00;;;;;;5025428;28;20525;-71
2023/05/19 06:01:42;;;;;;;6.30;3.93;;;12.60;1.00;;;;;;5027209;28;20462;-74
2023/05/19 06:04:11;;;;;;;6.57;3.30;;;12.70;1.00;;;;;;5029081;28;20472;-72
2023/05/19 06:06:38;;;;;;;12.23;3.93;;;12.90;1.00;;;;;;5026459;28;20539;-72
2023/05/19 06:09:05;;;;;;;3.53;2.70;;;13.00;1.00;;;;;;5029509;28;20456;-71
2023/05/19 06:11:33;;;;;;;3.87;3.20;;;13.00;1.00;;;;;;5022799;28;20543;-71
2023/05/19 06:14:00;;;;;;;5.00;3.33;;;13.20;1.00;;;;;;5023731;28;20472;-71
2023/05/19 06:16:27;;;;;;;4.63;3.23;;;13.40;1.00;;;;;;5023468;28;20527;-70
2023/05/19 06:18:54;;;;;;;6.70;3.83;;;13.40;1.00;;;;;;5025867;28;20551;-72
2023/05/19 06:21:22;;;;;;;9.93;4.03;;;13.60;1.00;;;;;;5028554;28;20462;-71
2023/05/19 06:23:49;;;;;;;4.80;3.20;;;13.80;1.00;;;;;;5025088;28;20586;-71
2023/05/19 06:26:16;;;;;;;6.83;4.10;;;13.80;1.00;;;;;;5023508;28;20487;-71
2023/05/19 06:28:43;;;;;;;4.57;3.20;;;14.10;1.00;;;;;;5025392;28;20461;-71
2023/05/19 06:31:10;;;;;;;9.87;3.77;;;14.20;1.00;;;;;;5028076;28;20463;-72
2023/05/19 06:33:37;;;;;;;4.73;3.50;;;14.20;1.00;;;;;;5027290;28;20472;-71
2023/05/19 06:36:04;;;;;;;5.43;3.60;;;14.20;1.00;;;;;;5027324;28;20531;-71
2023/05/19 06:38:33;;;;;;;4.23;3.20;;;14.30;1.00;;;;;;5027406;28;20543;-74
2023/05/19 06:40:59;;;;;;;5.17;3.77;;;14.40;1.00;;;;;;5026363;28;20476;-71
2023/05/19 06:43:27;;;;;;;7.83;3.90;;;14.50;1.00;;;;;;5023209;28;20535;-71
2023/05/19 06:45:54;;;;;;;7.50;3.13;;;14.70;1.00;;;;;;5020795;28;20560;-71
2023/05/19 06:48:21;;;;;;;5.73;3.43;;;14.80;1.00;;;;;;5022205;28;20469;-72
2023/05/19 06:50:49;;;;;;;3.70;3.20;;;14.80;1.00;;;;;;5023181;28;20472;-74
2023/05/19 06:53:17;;;;;;;3.43;3.13;;;14.80;1.00;;;;;;5022050;28;20497;-71
2023/05/19 06:55:45;;;;;;;4.30;3.57;;;14.90;1.00;;;;;;5022369;28;21304;-71
2023/05/19 06:58:12;;;;;;;4.13;3.40;;;15.10;1.00;;;;;;5022079;28;20995;-70
2023/05/19 07:00:39;;;;;;;6.37;3.40;;;15.20;1.00;;;;;;5027074;28;20544;-70
2023/05/19 07:03:06;;;;;;;6.57;3.30;;;15.20;1.00;;;;;;5025920;28;21339;-71
2023/05/19 07:05:33;;;;;;;7.00;3.27;;;15.20;1.00;;;;;;5024042;28;20607;-72
2023/05/19 07:08:00;;;;;;;8.00;4.50;;;15.20;1.00;;;;;;5024601;28;20547;-69
2023/05/19 07:10:27;;;;;;;8.13;3.50;;;15.30;1.00;;;;;;5020689;28;20980;-71
2023/05/19 07:12:56;;;;;;;9.47;4.50;;;15.50;1.00;;;;;;5022257;28;20486;-71
2023/05/19 07:15:23;;;;;;;6.17;2.97;;;15.50;1.00;;;;;;5029208;28;20507;-72
2023/05/19 07:17:50;;;;;;;7.70;3.60;;;15.50;1.00;;;;;;5026757;28;20569;-72
2023/05/19 07:20:17;;;;;;;5.83;4.10;;;15.50;1.00;;;;;;5026910;28;20521;-73
2023/05/19 07:22:44;;;;;;;6.90;3.37;;;15.60;1.00;;;;;;5030528;28;20526;-73
2023/05/19 07:25:11;;;;;;;9.17;4.73;;;15.60;1.00;;;;;;5024194;28;20547;-71
2023/05/19 07:27:38;;;;;;;4.00;3.60;;;15.90;1.00;;;;;;5029458;28;20500;-70
2023/05/19 07:30:08;;;;;;;4.17;3.77;;;16.30;1.00;;;;;;5030160;28;20492;-73
2023/05/19 07:32:35;;;;;;;5.40;3.73;;;16.60;1.00;;;;;;5028623;28;20465;-72
2023/05/19 07:35:02;;;;;;;7.27;3.70;;;16.80;1.00;;;;;;5029545;28;20995;-72
2023/05/19 07:37:29;;;;;;;4.40;3.00;;;17.10;1.00;;;;;;5027401;28;20446;-71
2023/05/19 07:39:56;;;;;;;3.10;2.80;;;17.20;1.00;;;;;;5035653;28;20473;-70
2023/05/19 07:42:23;;;;;;;5.40;3.53;;;17.10;1.00;;;;;;5026796;28;20499;-71
2023/05/19 07:44:50;;;;;;;5.70;3.80;;;17.00;1.00;;;;;;5027937;28;21763;-71
2023/05/19 07:47:18;;;;;;;3.83;3.33;;;16.80;1.00;;;;;;5023632;28;21334;-72
2023/05/19 07:49:46;;;;;;;5.47;4.40;;;16.90;1.00;;;;;;5025165;28;20516;-72
2023/05/19 07:52:13;;;;;;;4.33;3.70;;;17.00;1.00;;;;;;5028484;28;20434;-71
2023/05/19 07:54:40;;;;;;;7.10;3.80;;;17.30;1.00;;;;;;5025465;28;20932;-71
2023/05/19 07:57:07;;;;;;;6.63;4.03;;;17.50;1.00;;;;;;5026428;28;20927;-71
2023/05/19 07:59:34;;;;;;;6.90;4.30;;;17.40;1.00;;;;;;5023599;28;20463;-71
2023/05/19 08:02:01;;;;;;;5.73;3.40;;;17.40;1.00;;;;;;5025072;28;20893;-70
2023/05/19 08:04:29;;;;;;;4.07;3.43;;;17.50;1.00;;;;;;5024453;28;20963;-71
2023/05/19 08:06:56;;;;;;;4.80;3.97;;;17.40;1.00;;;;;;5028180;28;20549;-72
2023/05/19 08:09:23;;;;;;;4.97;3.90;;;17.50;1.00;;;;;;5026873;28;20949;-73
2023/05/19 08:11:50;;;;;;;4.17;3.77;;;17.20;1.00;;;;;;5024677;28;21086;-72
2023/05/19 08:14:18;;;;;;;4.30;3.60;;;17.40;1.00;;;;;;5025007;28;20866;-71
2023/05/19 08:16:45;;;;;;;4.80;4.23;;;17.40;1.00;;;;;;5025789;28;20482;-72
2023/05/19 08:19:12;;;;;;;3.97;3.27;;;17.80;1.00;;;;;;5026478;28;20477;-71
2023/05/19 08:21:41;;;;;;;4.90;3.50;;;18.00;1.00;;;;;;5023759;28;20979;-71
2023/05/19 08:24:08;;;;;;;4.13;3.73;;;18.10;1.00;;;;;;5025444;28;20490;-72
2023/05/19 08:26:35;;;;;;;5.40;3.53;;;18.30;1.00;;;;;;5025056;28;20456;-73
2023/05/19 08:29:02;;;;;;;3.83;3.40;;;18.50;1.00;;;;;;5025663;28;20467;-71
2023/05/19 08:31:29;;;;;;;4.97;3.27;;;18.60;1.00;;;;;;5025463;28;20498;-71
2023/05/19 08:33:59;;;;;;;7.03;4.00;;;18.70;1.00;;;;;;5027967;28;20460;-71
2023/05/19 08:36:26;;;;;;;7.10;3.90;;;18.70;1.00;;;;;;5024693;28;20478;-72
2023/05/19 08:38:54;;;;;;;3.63;3.20;;;18.70;1.00;;;;;;5023789;28;20459;-71
2023/05/19 08:41:22;;;;;;;4.43;3.20;;;18.60;1.00;;;;;;5032757;28;20943;-71
2023/05/19 08:43:49;;;;;;;10.20;4.70;;;18.50;1.00;;;;;;5025717;28;20464;-70
2023/05/19 08:46:17;;;;;;;3.97;3.30;;;18.60;1.00;;;;;;5024421;28;20491;-73
2023/05/19 08:48:46;;;;;;;4.10;3.27;;;18.90;1.00;;;;;;5028323;28;20874;-78
2023/05/19 08:51:20;;;;;;;6.17;5.67;;;19.50;1.00;;;;;;5028818;28;21084;-77
2023/05/19 08:53:50;;;;;;;2.87;2.67;;;20.00;1.00;;;;;;5030411;28;20563;-73
2023/05/19 08:56:23;;;;;;;5.03;3.67;;;20.30;1.00;;;;;;5022787;28;22850;-75
2023/05/19 08:58:51;;;;;;;4.03;2.47;;;20.60;1.00;;;;;;5024853;28;20855;-73
2023/05/19 09:01:20;;;;;;;3.13;2.50;;;20.70;1.00;;;;;;5023962;28;20985;-72
2023/05/19 09:03:48;;;;;;;4.37;2.73;;;20.90;1.00;;;;;;5025887;28;20465;-71
2023/05/19 09:06:15;;;;;;;10.90;4.07;;;20.90;1.00;;;;;;5026163;28;20516;-71
2023/05/19 09:08:43;;;;;;;3.83;2.80;;;21.00;1.00;;;;;;5027081;28;20466;-72
2023/05/19 09:11:11;;;;;;;2.60;2.00;;;20.90;1.00;;;;;;5025763;28;20471;-73
2023/05/19 09:13:39;;;;;;;4.50;2.37;;;20.70;1.00;;;;;;5026367;28;20426;-74
2023/05/19 09:16:07;;;;;;;6.73;4.30;;;20.60;1.00;;;;;;5025807;28;20505;-71
2023/05/19 09:18:34;;;;;;;3.97;2.10;;;20.80;1.00;;;;;;5024818;28;20539;-71
2023/05/19 09:21:02;;;;;;;3.03;2.20;;;20.50;1.00;;;;;;5024884;28;20570;-71
2023/05/19 09:23:30;;;;;;;2.00;1.87;;;20.80;1.00;;;;;;5024104;28;20450;-72
2023/05/19 09:25:57;;;;;;;2.53;2.30;;;21.30;1.00;;;;;;5027355;28;20570;-71
2023/05/19 09:28:26;;;;;;;2.00;1.60;;;22.10;1.00;;;;;;5025031;28;20456;-71
2023/05/19 09:31:12;;;;;;;4.43;3.10;;;22.60;1.00;;;;;;5021866;28;21096;-71
2023/05/19 09:33:41;;;;;;;4.63;2.63;;;22.50;1.00;;;;;;5027653;28;21016;-71
2023/05/19 09:36:09;;;;;;;3.30;2.50;;;22.40;1.00;;;;;;5024866;28;20461;-72
2023/05/19 09:38:38;;;;;;;3.80;2.27;;;22.40;1.00;;;;;;5025519;28;20460;-71
2023/05/19 09:41:06;;;;;;;3.87;2.40;;;22.00;1.00;;;;;;5024943;28;21075;-72
2023/05/19 09:43:35;;;;;;;3.00;1.80;;;22.00;1.00;;;;;;5024665;28;20967;-73
2023/05/19 09:46:04;;;;;;;5.43;2.60;;;22.90;1.00;;;;;;5023772;28;20465;-71
2023/05/19 09:48:34;;;;;;;4.63;2.70;;;24.00;1.00;;;;;;5021456;28;20446;-70
2023/05/19 09:51:01;;;;;;;1.63;1.53;;;23.70;1.00;;;;;;5023219;28;20490;-71
2023/05/19 09:53:30;;;;;;;4.13;1.93;;;24.00;1.00;;;;;;5024287;28;20569;-70
2023/05/19 09:55:57;;;;;;;6.47;1.60;;;24.90;1.00;;;;;;5024112;28;20467;-72
2023/05/19 09:58:25;;;;;;;6.20;1.70;;;25.30;1.00;;;;;;5023139;28;20524;-72
2023/05/19 10:00:53;;;;;;;2.53;1.37;;;25.10;1.00;;;;;;5027635;28;20500;-74
2023/05/19 10:03:22;;;;;;;3.57;1.93;;;25.00;1.00;;;;;;5022269;28;20604;-73
2023/05/19 10:05:51;;;;;;;3.40;2.10;;;24.70;1.00;;;;;;5022607;28;20459;-72
2023/05/19 10:08:18;;;;;;;3.33;1.70;;;24.60;1.00;;;;;;5018434;28;20474;-72
2023/05/19 10:10:46;;;;;;;4.53;1.80;;;24.70;1.00;;;;;;5024650;28;20580;-72
2023/05/19 10:13:14;;;;;;;3.00;2.00;;;24.50;1.00;;;;;;5022661;28;20465;-71
2023/05/19 10:15:42;;;;;;;2.93;1.73;;;24.30;1.00;;;;;;5027709;28;20459;-70
2023/05/19 10:18:10;;;;;;;2.33;1.60;;;23.80;1.00;;;;;;5024052;28;20459;-73
2023/05/19 10:20:38;;;;;;;3.10;2.33;;;23.00;1.00;;;;;;5025151;28;20470;-71
2023/05/19 10:23:06;;;;;;;4.07;1.70;;;23.40;1.00;;;;;;5026532;28;20452;-72
2023/05/19 10:25:35;;;;;;;2.60;2.00;;;24.20;1.00;;;;;;5026140;28;20543;-72
2023/05/19 10:28:07;;;;;;;2.10;1.50;;;23.30;1.00;;;;;;5027286;28;20463;-72
2023/05/19 10:30:38;;;;;;;2.60;1.83;;;23.10;1.00;;;;;;5024556;28;20509;-71
2023/05/19 10:33:09;;;;;;;2.50;1.50;;;23.50;1.00;;;;;;5026734;28;20534;-69
2023/05/19 10:36:07;;;;;;;2.77;1.90;;;23.50;1.00;;;;;;5025597;28;20883;-75
2023/05/19 10:38:42;;;;;;;3.57;1.57;;;23.50;1.00;;;;;;5026287;28;20510;-71
2023/05/19 10:41:13;;;;;;;2.50;1.37;;;23.60;1.00;;;;;;5025847;28;20471;-71
2023/05/19 10:43:56;;;;;;;6.97;1.90;;;23.80;1.00;;;;;;5024739;28;20981;-73
2023/05/19 10:46:25;;;;;;;2.87;2.10;;;23.60;1.00;;;;;;5022747;28;20538;-71
2023/05/19 10:48:52;;;;;;;4.80;1.93;;;23.70;1.00;;;;;;5019829;28;20982;-71
2023/05/19 10:51:19;;;;;;;2.23;1.60;;;23.50;1.00;;;;;;5029991;28;20561;-71
2023/05/19 10:53:49;;;;;;;2.47;1.80;;;23.50;1.00;;;;;;5028964;28;20462;-72
2023/05/19 10:56:31;;;;;;;2.10;1.60;;;23.50;1.00;;;;;;5030122;28;20557;-73
2023/05/19 10:58:58;;;;;;;2.93;1.80;;;23.50;1.00;;;;;;5026399;28;20454;-70
2023/05/19 11:01:31;;;;;;;4.83;2.30;;;23.60;1.00;;;;;;5028125;28;20486;-70
2023/05/19 11:04:05;;;;;;;2.10;1.67;;;24.00;1.00;;;;;;5026917;28;20878;-70
2023/05/19 11:06:34;;;;;;;3.43;2.17;;;24.10;1.00;;;;;;5029690;28;20990;-71
2023/05/19 11:09:12;;;;;;;2.43;1.47;;;24.10;1.00;;;;;;5025059;28;20463;-72
2023/05/19 11:11:47;;;;;;;2.30;1.57;;;23.60;1.00;;;;;;5023997;28;21024;-72
2023/05/19 11:14:17;;;;;;;4.90;2.00;;;23.50;1.00;;;;;;5023469;28;20463;-72
2023/05/19 11:16:48;;;;;;;1.80;1.50;;;23.70;1.00;;;;;;5030758;28;20459;-74
2023/05/19 11:19:20;;;;;;;4.87;1.77;;;23.20;1.00;;;;;;5028739;28;20616;-72
2023/05/19 11:21:51;;;;;;;2.67;1.87;;;23.80;1.00;;;;;;5027638;28;20842;-71
2023/05/19 11:24:39;;;;;;;4.07;1.73;;;24.20;1.00;;;;;;5025668;28;20509;-71
2023/05/19 11:27:26;;;;;;;2.97;2.50;;;24.80;1.00;;;;;;5024753;28;20855;-72
2023/05/19 11:29:54;;;;;;;4.70;2.30;;;24.60;1.00;;;;;;5024923;28;20461;-72
2023/05/19 11:32:23;;;;;;;2.33;1.90;;;24.10;1.00;;;;;;5028963;28;20482;-71
2023/05/19 11:34:50;;;;;;;6.03;2.10;;;23.50;1.00;;;;;;5025813;28;20463;-70
2023/05/19 11:37:17;;;;;;;5.00;2.60;;;24.00;1.00;;;;;;5027743;28;20900;-72
2023/05/19 11:39:47;;;;;;;3.70;1.87;;;24.20;1.00;;;;;;5029085;28;20497;-72
2023/05/19 11:42:14;;;;;;;3.60;1.97;;;24.50;1.00;;;;;;5026072;28;20477;-72
2023/05/19 11:44:44;;;;;;;7.37;2.20;;;25.30;1.00;;;;;;5025972;28;20900;-71
2023/05/19 11:47:12;;;;;;;3.70;2.03;;;25.80;1.00;;;;;;5027535;28;20463;-71
2023/05/19 11:49:39;;;;;;;2.43;1.83;;;26.70;1.00;;;;;;5024152;28;20486;-71
2023/05/19 11:52:07;;;;;;;2.80;2.17;;;27.50;1.00;;;;;;5030218;28;20477;-71
2023/05/19 11:54:35;;;;;;;3.20;1.93;;;27.10;1.00;;;;;;5028407;28;20461;-72
2023/05/19 11:57:04;;;;;;;3.57;1.40;;;27.00;1.00;;;;;;5027782;28;20458;-72
2023/05/19 11:59:33;;;;;;;1.53;1.37;;;27.70;1.00;;;;;;5027301;28;20550;-73
2023/05/19 12:02:15;;;;;;;2.40;1.60;;;27.50;1.00;;;;;;5024259;28;20470;-71
2023/05/19 12:04:42;;;;;;;3.57;2.33;;;26.50;1.00;;;;;;5024579;28;20472;-72
2023/05/19 12:07:12;;;;;;;5.77;1.87;;;26.10;1.00;;;;;;5026664;28;20486;-71
2023/05/19 12:09:40;;;;;;;1.53;1.43;;;26.00;1.00;;;;;;5023309;28;20459;-74
2023/05/19 12:12:09;;;;;;;2.17;1.97;;;26.10;1.00;;;;;;5028892;28;20475;-69
2023/05/19 12:14:37;;;;;;;2.00;1.80;;;26.00;1.00;;;;;;5025364;28;20972;-74
2023/05/19 12:17:12;;;;;;;2.30;2.10;;;28.00;1.00;;;;;;5023539;28;20501;-74
2023/05/19 12:19:40;;;;;;;4.33;2.60;;;30.20;1.00;;;;;;5024104;28;20458;-73
2023/05/19 12:22:07;;;;;;;4.77;2.27;;;30.60;1.00;;;;;;5025319;28;20473;-71
2023/05/19 12:24:36;;;;;;;1.53;1.43;;;30.20;1.00;;;;;;5028123;28;20453;-71
2023/05/19 12:27:12;;;;;;;2.73;1.83;;;29.70;1.00;;;;;;5027968;28;20551;-71
2023/05/19 12:29:40;;;;;;;2.83;2.10;;;29.20;1.00;;;;;;5021435;28;20460;-70
2023/05/19 12:32:08;;;;;;;2.80;2.10;;;29.20;1.00;;;;;;5026903;28;20598;-71
2023/05/19 12:34:37;;;;;;;2.03;1.90;;;29.40;1.00;;;;;;5024136;28;20449;-71
2023/05/19 12:37:04;;;;;;;2.07;1.87;;;28.90;1.00;;;;;;5028446;28;20854;-71
2023/05/19 12:39:32;;;;;;;2.53;1.63;;;28.60;1.00;;;;;;5023678;28;20508;-71
2023/05/19 12:42:03;;;;;;;2.17;1.80;;;28.90;1.00;;;;;;5032578;28;20519;-71
2023/05/19 12:44:36;;;;;;;2.73;1.83;;;28.00;1.00;;;;;;5030224;28;20455;-70
2023/05/19 12:47:05;;;;;;;6.13;1.50;;;28.00;1.00;;;;;;5028608;28;20467;-69
2023/05/19 12:49:33;;;;;;;2.77;2.43;;;27.70;1.00;;;;;;5026627;28;20564;-71
2023/05/19 12:52:02;;;;;;;3.00;2.20;;;28.50;1.00;;;;;;5028117;28;20497;-72
2023/05/19 12:54:32;;;;;;;2.63;2.37;;;28.80;1.00;;;;;;5028166;28;21022;-71
2023/05/19 12:56:59;;;;;;;4.47;2.50;;;29.60;1.00;;;;;;5024386;28;20469;-71
2023/05/19 12:59:26;;;;;;;4.30;2.10;;;30.40;1.00;;;;;;5027900;28;20484;-73
2023/05/19 13:01:58;;;;;;;2.03;1.83;;;30.70;1.00;;;;;;5026206;28;20483;-72
2023/05/19 13:04:26;;;;;;;4.20;2.50;;;31.50;1.00;;;;;;5029121;28;20454;-72
2023/05/19 13:06:53;;;;;;;4.90;2.00;;;31.80;1.00;;;;;;5024080;28;20481;-73